Time;durP1;ratioP1;P1;durP2;ratioP2;P2;SDS_P1;SDS_P2;PMS_P1;PMS_P2;Temp;Humidity;BMP_temperature;BMP_pressure;BME280_temperature;BME280_humidity;BME280_pressure;Samples;Min_cycle;Max_cycle;Signal;HPM_P1;HPM_P2
2023/07/31 00:02:13;;;;;;;7.20;2.92;;;16.10;99.90;;;;;;5016689;28;20394;-61
2023/07/31 00:04:39;;;;;;;4.78;3.13;;;16.10;99.90;;;;;;5009044;28;20044;-64
2023/07/31 00:07:06;;;;;;;4.28;2.75;;;16.10;99.90;;;;;;5010453;28;20110;-64
2023/07/31 00:09:34;;;;;;;5.57;2.50;;;16.00;99.90;;;;;;5009265;28;20029;-63
2023/07/31 00:12:00;;;;;;;6.22;2.90;;;16.00;99.90;;;;;;5024865;28;20476;-64
2023/07/31 00:14:26;;;;;;;5.45;3.00;;;16.00;99.90;;;;;;5017619;28;20091;-63
2023/07/31 00:16:52;;;;;;;4.78;2.90;;;16.00;99.90;;;;;;5023664;28;20029;-64
2023/07/31 00:19:17;;;;;;;5.40;3.15;;;16.00;99.90;;;;;;5017809;28;20084;-64
2023/07/31 00:21:44;;;;;;;6.93;2.80;;;16.00;99.90;;;;;;5021926;28;20037;-64
2023/07/31 00:24:09;;;;;;;5.75;2.70;;;16.00;99.90;;;;;;5010708;28;20049;-64
2023/07/31 00:26:35;;;;;;;4.50;2.55;;;16.10;99.90;;;;;;5026370;28;20041;-64
2023/07/31 00:29:01;;;;;;;4.28;2.50;;;15.90;99.90;;;;;;5023896;28;20042;-64
2023/07/31 00:31:26;;;;;;;6.07;3.00;;;15.90;99.90;;;;;;5013991;28;20040;-64
2023/07/31 00:33:52;;;;;;;4.47;2.53;;;15.90;99.90;;;;;;5025361;28;20124;-62
2023/07/31 00:36:18;;;;;;;5.63;2.67;;;15.90;99.90;;;;;;5026719;28;20106;-64
2023/07/31 00:38:44;;;;;;;7.18;2.70;;;15.80;99.90;;;;;;5025220;28;20061;-65
2023/07/31 00:41:09;;;;;;;3.92;2.42;;;15.80;99.90;;;;;;5023767;28;20045;-64
2023/07/31 00:43:35;;;;;;;5.80;2.45;;;15.80;99.90;;;;;;5014367;28;20077;-64
2023/07/31 00:46:01;;;;;;;3.78;2.28;;;15.80;99.90;;;;;;5012354;28;20450;-65
2023/07/31 00:48:27;;;;;;;4.65;2.70;;;15.80;99.90;;;;;;5005186;28;20045;-65
2023/07/31 00:50:52;;;;;;;4.00;2.47;;;15.80;99.90;;;;;;5022048;28;20077;-64
2023/07/31 00:53:18;;;;;;;3.67;2.20;;;15.80;99.90;;;;;;5018904;28;20076;-64
2023/07/31 00:55:45;;;;;;;4.10;2.17;;;15.70;99.90;;;;;;5021632;28;20037;-64
2023/07/31 00:58:10;;;;;;;4.15;2.17;;;15.80;99.90;;;;;;5025017;28;20056;-65
2023/07/31 01:00:36;;;;;;;3.40;2.17;;;15.70;99.90;;;;;;5024115;28;20033;-65
2023/07/31 01:03:02;;;;;;;2.83;2.00;;;15.70;99.90;;;;;;5023394;28;20042;-64
2023/07/31 01:05:49;;;;;;;4.55;1.80;;;15.70;99.90;;;;;;5021701;28;20037;-64
2023/07/31 01:08:24;;;;;;;5.60;2.10;;;15.70;99.90;;;;;;5023033;28;20038;-67
2023/07/31 01:11:01;;;;;;;2.80;1.80;;;15.70;99.90;;;;;;5022228;28;20047;-67
2023/07/31 01:13:27;;;;;;;2.35;1.77;;;15.60;99.90;;;;;;5010148;28;20041;-67
2023/07/31 01:15:53;;;;;;;3.53;1.85;;;15.70;99.90;;;;;;5022968;28;20068;-67
2023/07/31 01:18:19;;;;;;;2.72;1.55;;;15.70;99.90;;;;;;5009687;28;20318;-67
2023/07/31 01:20:54;;;;;;;3.88;2.08;;;15.60;99.90;;;;;;5016294;28;20050;-67
2023/07/31 01:23:39;;;;;;;2.65;1.50;;;15.60;99.90;;;;;;5023556;28;20037;-67
2023/07/31 01:26:17;;;;;;;2.42;1.40;;;15.60;99.90;;;;;;5017588;28;20145;-67
2023/07/31 01:29:01;;;;;;;2.75;1.52;;;15.60;99.90;;;;;;4996711;28;20049;-67
2023/07/31 01:31:30;;;;;;;2.00;1.60;;;15.70;99.90;;;;;;5013460;28;20033;-67
2023/07/31 01:34:00;;;;;;;2.15;1.42;;;15.60;99.90;;;;;;5021413;28;20172;-67
2023/07/31 01:36:26;;;;;;;2.88;1.40;;;15.60;99.90;;;;;;5009574;28;20034;-65
2023/07/31 01:38:52;;;;;;;3.17;1.55;;;15.60;99.90;;;;;;5025951;28;20037;-66
2023/07/31 01:41:18;;;;;;;3.25;1.52;;;15.60;99.90;;;;;;5018741;28;20520;-67
2023/07/31 01:43:47;;;;;;;2.80;1.70;;;15.60;99.90;;;;;;5030087;28;20510;-67
2023/07/31 01:46:12;;;;;;;2.80;1.50;;;15.60;99.90;;;;;;5022856;28;20476;-67
2023/07/31 01:48:38;;;;;;;2.95;1.65;;;15.70;99.90;;;;;;5017536;28;20038;-67
2023/07/31 01:51:04;;;;;;;2.97;1.50;;;15.60;99.90;;;;;;5022811;28;20034;-67
2023/07/31 01:53:31;;;;;;;2.10;1.48;;;15.60;99.90;;;;;;5017654;28;20037;-67
2023/07/31 01:55:57;;;;;;;2.35;1.45;;;15.60;99.90;;;;;;5025131;28;20038;-67
2023/07/31 01:58:23;;;;;;;2.80;1.40;;;15.60;99.90;;;;;;5007372;28;20524;-67
2023/07/31 02:00:48;;;;;;;1.40;1.30;;;15.70;99.90;;;;;;5018273;28;20034;-67
2023/07/31 02:03:14;;;;;;;2.03;1.30;;;15.70;99.90;;;;;;5023357;28;20120;-65
2023/07/31 02:05:47;;;;;;;2.03;1.33;;;15.70;99.90;;;;;;5022964;28;20041;-67
2023/07/31 02:08:13;;;;;;;2.28;1.48;;;15.70;99.90;;;;;;5023451;28;20042;-67
2023/07/31 02:10:39;;;;;;;3.20;1.70;;;15.70;99.90;;;;;;5018206;28;20546;-67
2023/07/31 02:13:04;;;;;;;2.13;1.40;;;15.70;99.90;;;;;;5009360;28;20042;-67
2023/07/31 02:15:31;;;;;;;2.42;1.50;;;15.70;99.90;;;;;;5022281;28;20116;-67
2023/07/31 02:17:56;;;;;;;1.90;1.40;;;15.80;99.90;;;;;;5026588;28;20042;-67
2023/07/31 02:20:25;;;;;;;3.75;1.65;;;15.80;99.90;;;;;;5018648;28;20099;-67
2023/07/31 02:22:51;;;;;;;1.77;1.63;;;15.80;99.90;;;;;;4999319;28;20547;-67
2023/07/31 02:25:16;;;;;;;1.95;1.60;;;15.80;99.90;;;;;;5016973;28;20038;-68
2023/07/31 02:27:42;;;;;;;2.80;1.77;;;15.80;99.90;;;;;;5009664;28;20401;-67
2023/07/31 02:30:09;;;;;;;3.40;1.42;;;15.80;99.90;;;;;;5011540;28;20404;-67
2023/07/31 02:32:35;;;;;;;2.58;1.40;;;15.90;99.90;;;;;;5014082;28;20106;-67
2023/07/31 02:35:00;;;;;;;2.30;1.80;;;15.90;99.90;;;;;;5018683;28;20089;-67
2023/07/31 02:37:28;;;;;;;3.25;1.67;;;15.90;99.90;;;;;;5025572;28;20082;-67
2023/07/31 02:39:54;;;;;;;4.32;1.90;;;15.90;99.90;;;;;;5005940;28;20046;-66
2023/07/31 02:42:19;;;;;;;2.13;1.63;;;16.00;99.90;;;;;;5025746;28;20384;-67
2023/07/31 02:44:45;;;;;;;2.75;1.60;;;15.90;99.90;;;;;;5019757;28;20404;-67
2023/07/31 02:47:13;;;;;;;5.13;1.70;;;16.00;99.90;;;;;;5005125;28;20527;-67
2023/07/31 02:49:39;;;;;;;2.35;1.70;;;16.00;99.90;;;;;;5009347;28;20138;-67
2023/07/31 02:52:05;;;;;;;5.32;1.92;;;15.90;99.90;;;;;;5018817;28;20073;-67
2023/07/31 02:54:31;;;;;;;2.88;1.75;;;16.00;99.90;;;;;;5021301;28;20037;-67
2023/07/31 02:56:56;;;;;;;4.10;2.28;;;16.00;99.90;;;;;;5003985;28;20041;-66
2023/07/31 02:59:22;;;;;;;3.65;1.73;;;16.00;99.90;;;;;;5019954;28;20439;-67
2023/07/31 03:01:48;;;;;;;5.90;2.30;;;16.00;99.90;;;;;;5025483;28;20095;-65
2023/07/31 03:04:13;;;;;;;4.28;2.10;;;16.00;99.90;;;;;;5012931;28;20042;-68
2023/07/31 03:06:39;;;;;;;3.78;2.25;;;16.10;99.90;;;;;;5025129;28;20080;-67
2023/07/31 03:09:05;;;;;;;3.72;2.38;;;16.10;99.90;;;;;;5016931;28;20067;-67
2023/07/31 03:11:30;;;;;;;3.45;2.28;;;16.10;99.90;;;;;;5026648;28;20036;-67
2023/07/31 03:13:56;;;;;;;6.63;2.10;;;16.10;99.90;;;;;;5024183;28;20492;-67
2023/07/31 03:16:22;;;;;;;5.63;2.58;;;16.10;99.90;;;;;;5019720;28;20083;-67
2023/07/31 03:18:47;;;;;;;5.47;2.38;;;16.10;99.90;;;;;;5025513;28;20045;-67
2023/07/31 03:21:14;;;;;;;5.15;2.30;;;16.10;99.90;;;;;;5020211;28;20034;-67
2023/07/31 03:23:40;;;;;;;3.42;1.92;;;16.30;99.90;;;;;;5026253;28;20033;-67
2023/07/31 03:26:07;;;;;;;3.60;2.15;;;16.10;99.90;;;;;;5019775;28;20529;-67
2023/07/31 03:28:33;;;;;;;4.72;2.30;;;16.10;99.90;;;;;;5026028;28;20045;-67
2023/07/31 03:30:59;;;;;;;4.18;2.50;;;16.10;99.90;;;;;;5023569;28;20064;-67
2023/07/31 03:33:24;;;;;;;6.40;2.42;;;16.20;99.90;;;;;;5015983;28;20072;-68
2023/07/31 03:35:50;;;;;;;5.47;2.28;;;16.10;99.90;;;;;;5025761;28;20045;-67
2023/07/31 03:38:15;;;;;;;5.03;2.42;;;16.20;99.90;;;;;;5016077;28;20409;-66
2023/07/31 03:40:41;;;;;;;4.82;2.20;;;16.20;99.90;;;;;;5014936;28;20037;-66
2023/07/31 03:43:07;;;;;;;4.15;2.20;;;16.20;99.90;;;;;;5022854;28;20511;-67
2023/07/31 03:45:32;;;;;;;7.45;2.90;;;16.20;99.90;;;;;;5020273;28;20029;-67
2023/07/31 03:47:58;;;;;;;6.47;2.72;;;16.20;99.90;;;;;;5025372;28;20094;-67
2023/07/31 03:50:25;;;;;;;7.55;3.20;;;16.20;99.90;;;;;;5020710;28;20172;-66
2023/07/31 03:52:50;;;;;;;5.65;2.58;;;16.30;99.90;;;;;;5019324;28;20408;-67
2023/07/31 03:55:16;;;;;;;6.88;2.53;;;16.30;99.90;;;;;;5002677;28;20042;-67
2023/07/31 03:57:42;;;;;;;4.40;2.78;;;16.30;99.90;;;;;;5018288;28;20496;-65
2023/07/31 04:00:08;;;;;;;6.88;2.60;;;16.30;99.90;;;;;;5028995;28;20503;-67
2023/07/31 04:02:33;;;;;;;4.80;2.50;;;16.30;99.90;;;;;;5016193;28;20026;-67
2023/07/31 04:04:59;;;;;;;5.40;2.67;;;16.30;99.90;;;;;;5027381;28;20044;-67
2023/07/31 04:07:25;;;;;;;5.13;2.60;;;16.30;99.90;;;;;;5020195;28;20037;-67
2023/07/31 04:09:50;;;;;;;3.95;2.42;;;16.30;99.90;;;;;;5021129;28;20549;-67
2023/07/31 04:12:16;;;;;;;5.15;2.45;;;16.30;99.90;;;;;;5027810;28;20076;-67
2023/07/31 04:14:41;;;;;;;6.40;2.70;;;16.30;99.90;;;;;;5021879;28;20113;-67
2023/07/31 04:17:07;;;;;;;7.03;2.97;;;16.30;99.90;;;;;;5027180;28;20037;-67
2023/07/31 04:19:33;;;;;;;6.47;2.72;;;16.30;99.90;;;;;;5019321;28;20038;-67
2023/07/31 04:21:58;;;;;;;7.72;3.10;;;16.40;99.90;;;;;;5027826;28;20048;-67
2023/07/31 04:24:24;;;;;;;13.30;5.20;;;16.40;99.90;;;;;;5027656;28;20692;-67
2023/07/31 04:26:52;;;;;;;16.08;5.45;;;16.30;99.90;;;;;;5024653;28;20116;-67
2023/07/31 04:29:17;;;;;;;16.50;6.03;;;16.40;99.90;;;;;;5028778;28;20116;-67
2023/07/31 04:31:43;;;;;;;16.90;6.07;;;16.40;99.90;;;;;;5023264;28;20548;-67
2023/07/31 04:34:09;;;;;;;18.95;6.43;;;16.40;99.90;;;;;;5017140;28;20034;-65
2023/07/31 04:36:35;;;;;;;21.70;7.20;;;16.40;99.90;;;;;;5015084;28;20113;-67
2023/07/31 04:39:01;;;;;;;21.20;6.97;;;16.40;99.90;;;;;;5020813;28;20049;-67
2023/07/31 04:41:27;;;;;;;22.02;6.97;;;16.50;99.90;;;;;;5024148;28;20073;-67
2023/07/31 04:43:53;;;;;;;24.05;7.43;;;16.40;99.90;;;;;;5007767;28;20031;-65
2023/07/31 04:46:19;;;;;;;18.88;6.75;;;16.40;99.90;;;;;;5021624;28;20099;-67
2023/07/31 04:48:44;;;;;;;22.52;7.15;;;16.50;99.90;;;;;;5018688;28;20041;-67
2023/07/31 04:51:10;;;;;;;23.58;7.13;;;16.50;99.90;;;;;;5015778;28;20050;-67
2023/07/31 04:53:37;;;;;;;21.40;8.25;;;16.50;99.90;;;;;;5019104;28;20041;-67
2023/07/31 04:56:02;;;;;;;28.55;7.93;;;16.50;99.90;;;;;;5019506;28;20042;-67
2023/07/31 04:58:28;;;;;;;26.95;8.40;;;16.50;99.90;;;;;;5024074;28;20396;-67
2023/07/31 05:00:54;;;;;;;23.75;8.05;;;16.50;99.90;;;;;;5023805;28;20041;-67
2023/07/31 05:03:19;;;;;;;27.67;8.07;;;16.50;99.90;;;;;;5014976;28;20030;-67
2023/07/31 05:05:45;;;;;;;20.38;7.97;;;16.50;99.90;;;;;;5027401;28;20703;-66
2023/07/31 05:08:11;;;;;;;25.95;8.32;;;16.50;99.90;;;;;;5022797;28;20514;-67
2023/07/31 05:10:36;;;;;;;26.40;8.98;;;16.50;99.90;;;;;;5031663;28;20087;-67
2023/07/31 05:13:02;;;;;;;31.58;8.00;;;16.50;99.90;;;;;;5020103;28;20116;-66
2023/07/31 05:15:28;;;;;;;28.42;8.40;;;16.50;99.90;;;;;;5023701;28;20447;-67
2023/07/31 05:17:54;;;;;;;30.60;9.10;;;16.50;99.90;;;;;;5017922;28;20037;-65
2023/07/31 05:20:21;;;;;;;25.40;7.95;;;16.60;99.90;;;;;;5004619;28;20494;-67
2023/07/31 05:22:46;;;;;;;31.70;8.80;;;16.60;99.90;;;;;;5020131;28;20434;-66
2023/07/31 05:25:15;;;;;;;27.10;8.90;;;16.60;99.90;;;;;;5024128;28;20046;-67
2023/07/31 05:27:41;;;;;;;30.08;9.77;;;16.60;99.90;;;;;;5030339;28;20088;-66
2023/07/31 05:30:07;;;;;;;29.65;8.52;;;16.60;99.90;;;;;;5015793;28;20488;-65
2023/07/31 05:32:33;;;;;;;28.00;9.27;;;16.60;99.90;;;;;;5038191;22;20619;-78
2023/07/31 05:34:58;;;;;;;29.60;9.10;;;16.60;99.90;;;;;;5027805;28;20129;-78
2023/07/31 05:37:24;;;;;;;30.40;9.30;;;16.60;99.90;;;;;;5027390;28;20092;-80
2023/07/31 05:39:50;;;;;;;31.67;8.82;;;16.60;99.90;;;;;;4996320;28;20109;-80
2023/07/31 05:42:16;;;;;;;31.20;8.48;;;16.60;99.90;;;;;;5003920;28;20039;-79
2023/07/31 05:44:41;;;;;;;28.52;8.95;;;16.60;99.90;;;;;;4994632;28;20045;-79
2023/07/31 05:47:07;;;;;;;27.55;8.68;;;16.60;99.90;;;;;;4995511;28;20042;-79
2023/07/31 05:49:33;;;;;;;28.00;8.95;;;16.50;99.90;;;;;;5003394;28;20119;-80
2023/07/31 05:51:58;;;;;;;28.73;9.23;;;16.60;99.90;;;;;;4995693;28;20238;-80
2023/07/31 05:54:24;;;;;;;22.70;8.38;;;16.60;99.90;;;;;;4999014;28;20114;-79
2023/07/31 05:56:49;;;;;;;28.92;8.98;;;16.60;99.90;;;;;;4995419;28;20053;-79
2023/07/31 05:59:16;;;;;;;26.27;8.40;;;16.60;99.90;;;;;;5007250;28;20505;-79
2023/07/31 06:01:42;;;;;;;22.77;8.88;;;16.60;99.90;;;;;;4996493;28;20125;-79
2023/07/31 06:04:07;;;;;;;28.95;8.30;;;16.60;99.90;;;;;;4985009;28;20121;-78
2023/07/31 06:06:33;;;;;;;26.10;8.32;;;16.60;99.90;;;;;;4982572;28;20383;-79
2023/07/31 06:08:59;;;;;;;40.70;9.93;;;16.70;99.90;;;;;;5004460;28;20046;-79
2023/07/31 06:11:25;;;;;;;23.65;8.70;;;16.70;99.90;;;;;;5008431;28;20061;-79
2023/07/31 06:13:50;;;;;;;27.90;9.10;;;16.70;99.90;;;;;;4987197;28;20454;-79
2023/07/31 06:16:16;;;;;;;25.10;8.23;;;16.70;99.90;;;;;;4980631;28;20402;-79
2023/07/31 06:18:42;;;;;;;31.40;9.95;;;16.70;99.90;;;;;;5006130;28;20104;-79
2023/07/31 06:21:09;;;;;;;24.95;9.32;;;16.70;99.90;;;;;;4993098;28;20042;-79
2023/07/31 06:23:34;;;;;;;28.70;9.65;;;16.60;99.90;;;;;;4983541;28;20046;-79
2023/07/31 06:26:00;;;;;;;22.38;9.40;;;16.70;99.90;;;;;;4996411;28;20038;-79
2023/07/31 06:28:30;;;;;;;26.55;9.60;;;16.60;99.90;;;;;;4991601;28;20038;-79
2023/07/31 06:30:56;;;;;;;28.63;9.35;;;16.60;99.90;;;;;;5000793;28;20039;-79
2023/07/31 06:33:21;;;;;;;25.38;9.13;;;16.60;99.90;;;;;;4994561;28;20498;-79
2023/07/31 06:35:47;;;;;;;27.13;10.13;;;16.60;99.90;;;;;;4998960;28;20038;-79
2023/07/31 06:38:13;;;;;;;22.02;8.65;;;16.60;99.90;;;;;;4996413;28;20078;-78
2023/07/31 06:40:38;;;;;;;20.88;7.88;;;16.60;99.90;;;;;;5003614;28;20038;-78
2023/07/31 06:43:07;;;;;;;16.10;7.20;;;16.60;99.90;;;;;;5005181;28;20042;-78
2023/07/31 06:45:37;;;;;;;19.20;7.05;;;16.70;99.90;;;;;;4995577;28;20092;-78
2023/07/31 06:48:04;;;;;;;17.17;7.00;;;16.60;99.90;;;;;;4997635;28;20113;-78
2023/07/31 06:50:32;;;;;;;16.42;6.90;;;16.60;99.90;;;;;;4990508;28;20099;-78
2023/07/31 06:52:58;;;;;;;16.73;6.57;;;16.60;99.90;;;;;;4992695;28;20039;-78
2023/07/31 06:55:24;;;;;;;17.85;6.28;;;16.60;99.90;;;;;;4996391;28;20049;-78
2023/07/31 06:57:51;;;;;;;15.73;7.05;;;16.60;99.90;;;;;;4994057;28;20050;-79
2023/07/31 07:00:18;;;;;;;16.33;7.07;;;16.60;99.90;;;;;;5002264;28;20114;-77
2023/07/31 07:02:44;;;;;;;18.08;7.68;;;16.60;99.90;;;;;;4974865;28;20073;-78
2023/07/31 07:05:09;;;;;;;23.13;7.35;;;16.60;99.90;;;;;;4995893;28;20038;-78
2023/07/31 07:07:35;;;;;;;16.77;7.03;;;16.60;99.90;;;;;;4994402;28;20041;-78
2023/07/31 07:10:03;;;;;;;16.80;7.25;;;16.60;99.90;;;;;;4994114;28;20038;-78
2023/07/31 07:12:30;;;;;;;15.38;6.85;;;16.60;99.90;;;;;;5002156;28;20088;-78
2023/07/31 07:14:55;;;;;;;13.80;6.30;;;16.70;99.90;;;;;;4985482;28;20085;-77
2023/07/31 07:17:21;;;;;;;14.23;5.32;;;16.70;99.90;;;;;;4983359;28;20063;-77
2023/07/31 07:19:48;;;;;;;10.48;5.40;;;16.70;99.90;;;;;;4989879;28;20050;-77
2023/07/31 07:22:13;;;;;;;11.75;5.40;;;16.70;99.90;;;;;;4990616;28;20038;-76
2023/07/31 07:24:39;;;;;;;12.98;5.32;;;16.70;99.90;;;;;;4995899;28;20088;-77
2023/07/31 07:27:05;;;;;;;13.40;5.00;;;16.70;99.90;;;;;;4993291;28;20122;-77
2023/07/31 07:29:31;;;;;;;11.52;4.40;;;16.70;99.90;;;;;;4999554;28;20095;-77
2023/07/31 07:31:56;;;;;;;12.15;5.28;;;16.70;99.90;;;;;;4991007;28;20052;-77
2023/07/31 07:34:28;;;;;;;10.60;4.65;;;16.70;99.90;;;;;;4997705;28;20057;-77
2023/07/31 07:36:55;;;;;;;9.10;4.07;;;16.70;99.90;;;;;;4990599;28;20501;-77
2023/07/31 07:39:21;;;;;;;9.68;4.05;;;16.70;99.90;;;;;;5002275;28;20395;-76
2023/07/31 07:41:47;;;;;;;8.10;4.00;;;16.70;99.90;;;;;;4998142;28;20398;-77
2023/07/31 07:44:13;;;;;;;9.52;4.35;;;16.70;99.90;;;;;;4997031;28;20464;-77
2023/07/31 07:46:39;;;;;;;9.25;3.97;;;16.70;99.90;;;;;;4999546;28;20050;-77
2023/07/31 07:49:05;;;;;;;7.93;3.55;;;16.70;99.90;;;;;;5006961;28;20436;-77
2023/07/31 07:51:31;;;;;;;8.85;3.85;;;16.80;99.90;;;;;;4995515;28;20037;-77
2023/07/31 07:54:00;;;;;;;8.25;4.20;;;16.80;99.90;;;;;;4994967;28;20066;-76
2023/07/31 07:56:26;;;;;;;7.03;3.67;;;16.70;99.90;;;;;;4993498;28;20034;-77
2023/07/31 07:58:53;;;;;;;6.75;3.53;;;16.70;99.90;;;;;;5000175;28;20406;-77
2023/07/31 08:01:19;;;;;;;8.73;3.83;;;16.80;99.90;;;;;;5000510;28;20030;-77
2023/07/31 08:03:45;;;;;;;8.35;3.40;;;16.80;99.90;;;;;;4989574;28;20046;-76
2023/07/31 08:06:10;;;;;;;6.30;3.35;;;16.80;99.90;;;;;;4988036;28;20038;-77
2023/07/31 08:08:37;;;;;;;6.88;3.40;;;16.80;99.90;;;;;;4997205;28;20046;-77
2023/07/31 08:11:03;;;;;;;9.93;3.50;;;16.90;99.90;;;;;;5001335;28;20048;-78
2023/07/31 08:13:29;;;;;;;5.85;3.33;;;16.90;99.90;;;;;;4995570;28;20042;-77
2023/07/31 08:15:54;;;;;;;7.07;3.17;;;16.90;99.90;;;;;;4995589;28;20218;-77
2023/07/31 08:18:20;;;;;;;6.15;3.33;;;16.90;99.90;;;;;;4992742;28;20037;-77
2023/07/31 08:20:46;;;;;;;6.95;3.10;;;16.90;99.90;;;;;;4995397;28;20490;-77
2023/07/31 08:23:12;;;;;;;4.65;3.08;;;16.90;99.90;;;;;;4993658;28;20049;-77
2023/07/31 08:25:38;;;;;;;6.55;2.85;;;17.00;99.90;;;;;;4998486;28;20498;-77
2023/07/31 08:28:04;;;;;;;5.25;3.38;;;17.00;99.90;;;;;;4988655;28;20518;-79
2023/07/31 08:30:30;;;;;;;5.78;2.97;;;17.10;99.90;;;;;;4992096;28;20042;-80
2023/07/31 08:32:56;;;;;;;5.35;3.08;;;17.10;99.90;;;;;;4995231;28;20387;-77
2023/07/31 08:35:22;;;;;;;6.53;3.15;;;17.10;99.90;;;;;;5001359;28;20042;-77
2023/07/31 08:37:48;;;;;;;4.75;2.90;;;17.10;99.90;;;;;;4994580;28;20403;-77
2023/07/31 08:40:13;;;;;;;5.75;2.65;;;17.10;99.90;;;;;;4992994;28;20043;-77
2023/07/31 08:42:48;;;;;;;3.65;2.42;;;17.10;99.90;;;;;;4992291;28;20042;-77
2023/07/31 08:45:16;;;;;;;4.90;2.58;;;17.20;99.90;;;;;;4992061;28;20045;-76
2023/07/31 08:47:47;;;;;;;3.83;2.70;;;17.20;99.90;;;;;;4993674;28;20050;-76
2023/07/31 08:50:13;;;;;;;5.10;2.72;;;17.20;99.90;;;;;;5001648;28;20046;-77
2023/07/31 08:52:39;;;;;;;4.32;2.47;;;17.20;99.90;;;;;;4993428;28;20117;-78
2023/07/31 08:55:06;;;;;;;5.43;2.53;;;17.20;99.90;;;;;;4973985;28;20053;-78
2023/07/31 08:57:36;;;;;;;3.90;2.47;;;17.20;99.90;;;;;;4989810;28;20451;-77
2023/07/31 09:00:03;;;;;;;3.33;2.10;;;17.20;99.90;;;;;;4998625;28;20050;-78
2023/07/31 09:02:45;;;;;;;3.22;2.05;;;17.20;99.90;;;;;;4990866;28;20096;-78
2023/07/31 09:05:11;;;;;;;2.45;1.90;;;17.30;99.90;;;;;;5000555;28;20376;-77
2023/07/31 09:07:37;;;;;;;4.07;2.13;;;17.30;99.90;;;;;;4993418;28;20140;-77
2023/07/31 09:10:04;;;;;;;3.22;1.92;;;17.40;99.90;;;;;;4990426;28;20073;-78
2023/07/31 09:12:30;;;;;;;2.92;1.75;;;17.40;99.90;;;;;;4991757;28;20382;-78
2023/07/31 09:15:00;;;;;;;2.80;1.90;;;17.40;99.90;;;;;;4999570;28;20043;-78
2023/07/31 09:17:31;;;;;;;2.90;1.90;;;17.40;99.90;;;;;;5006920;28;20042;-79
2023/07/31 09:19:57;;;;;;;2.83;1.60;;;17.40;99.90;;;;;;4993532;28;20050;-80
2023/07/31 09:22:34;;;;;;;3.95;2.30;;;17.50;99.90;;;;;;4999552;28;20042;-77
2023/07/31 09:25:17;;;;;;;3.42;2.05;;;17.50;99.90;;;;;;5001330;28;20043;-78
2023/07/31 09:27:51;;;;;;;3.70;1.90;;;17.50;99.90;;;;;;5005794;28;20061;-78
2023/07/31 09:30:20;;;;;;;2.03;1.70;;;17.50;99.90;;;;;;5001209;28;20104;-79
2023/07/31 09:32:47;;;;;;;2.88;1.90;;;17.60;99.90;;;;;;4994820;28;20046;-78
2023/07/31 09:35:19;;;;;;;2.03;1.70;;;17.60;99.90;;;;;;4992602;28;20034;-78
2023/07/31 09:37:55;;;;;;;2.80;2.00;;;17.60;99.90;;;;;;5004260;28;20456;-79
2023/07/31 09:40:28;;;;;;;2.88;1.90;;;17.60;99.90;;;;;;4992321;28;20100;-78
2023/07/31 09:42:59;;;;;;;1.95;1.65;;;17.70;99.90;;;;;;4991972;28;20525;-77
2023/07/31 09:45:25;;;;;;;2.67;1.90;;;17.70;99.90;;;;;;4989901;28;20061;-78
2023/07/31 09:47:51;;;;;;;3.88;1.80;;;17.80;99.90;;;;;;4999809;28;20398;-77
2023/07/31 09:50:21;;;;;;;2.55;2.10;;;17.80;99.90;;;;;;4992016;28;20038;-78
2023/07/31 09:52:47;;;;;;;3.03;2.00;;;17.70;99.90;;;;;;4991870;28;20398;-77
2023/07/31 09:55:12;;;;;;;2.85;2.10;;;17.80;99.90;;;;;;4992116;28;20039;-77
2023/07/31 09:57:44;;;;;;;2.55;1.83;;;17.80;99.90;;;;;;4991726;28;20097;-78
2023/07/31 10:00:11;;;;;;;3.63;2.25;;;17.90;99.90;;;;;;4990358;28;20072;-78
2023/07/31 10:02:38;;;;;;;2.70;2.00;;;17.90;99.90;;;;;;4991920;28;20117;-78
2023/07/31 10:05:05;;;;;;;3.30;2.20;;;17.90;99.90;;;;;;4992725;28;20682;-78
2023/07/31 10:07:35;;;;;;;2.92;2.17;;;18.00;99.90;;;;;;4992104;28;20073;-78
2023/07/31 10:10:01;;;;;;;2.83;2.03;;;18.10;99.90;;;;;;4991433;28;20495;-77
2023/07/31 10:12:30;;;;;;;3.00;2.50;;;18.10;99.90;;;;;;4991581;28;20068;-77
2023/07/31 10:14:56;;;;;;;2.53;1.90;;;18.20;99.90;;;;;;4992771;28;20045;-78
2023/07/31 10:17:22;;;;;;;3.55;2.45;;;18.20;99.90;;;;;;4991449;28;20046;-77
2023/07/31 10:19:49;;;;;;;2.10;1.90;;;18.20;99.90;;;;;;4975353;28;20051;-78
2023/07/31 10:22:16;;;;;;;2.70;2.17;;;18.20;99.90;;;;;;4991518;28;20042;-75
2023/07/31 10:24:46;;;;;;;3.88;2.10;;;18.20;99.90;;;;;;4991456;28;20454;-77
2023/07/31 10:27:12;;;;;;;2.22;1.80;;;18.20;99.90;;;;;;4991019;28;20372;-78
2023/07/31 10:29:39;;;;;;;2.60;2.20;;;18.20;99.90;;;;;;4970797;28;20046;-78
2023/07/31 10:32:10;;;;;;;2.55;1.92;;;18.30;99.90;;;;;;4990306;28;20046;-79
2023/07/31 10:34:36;;;;;;;2.97;2.08;;;18.30;99.90;;;;;;4986840;28;20034;-78
2023/07/31 10:37:28;;;;;;;1.90;1.70;;;18.30;99.90;;;;;;4991126;28;20057;-78
2023/07/31 10:40:05;;;;;;;3.75;1.85;;;18.40;99.90;;;;;;4989951;28;20133;-77
2023/07/31 10:42:35;;;;;;;1.70;1.60;;;18.40;99.90;;;;;;4987125;28;20659;-77
2023/07/31 10:45:10;;;;;;;2.95;1.70;;;18.50;99.90;;;;;;4990843;28;20077;-77
2023/07/31 10:47:46;;;;;;;2.03;1.70;;;18.50;99.90;;;;;;4988367;28;20053;-77
2023/07/31 10:50:23;;;;;;;2.38;1.70;;;18.60;99.90;;;;;;4989580;28;20093;-77
2023/07/31 10:52:55;;;;;;;2.55;1.70;;;18.60;99.90;;;;;;4987190;28;20050;-77
2023/07/31 10:55:24;;;;;;;2.80;1.70;;;18.60;99.90;;;;;;4991199;28;20049;-77
2023/07/31 10:57:50;;;;;;;2.28;1.70;;;18.60;99.90;;;;;;5001780;28;20046;-77
2023/07/31 11:00:27;;;;;;;2.28;1.40;;;18.60;99.90;;;;;;4996687;28;20046;-77
2023/07/31 11:03:03;;;;;;;1.50;1.40;;;18.60;99.90;;;;;;4992595;28;20042;-77
2023/07/31 11:05:49;;;;;;;1.52;1.38;;;18.60;99.90;;;;;;4973911;28;20141;-79
2023/07/31 11:08:21;;;;;;;1.70;1.60;;;18.60;99.90;;;;;;4977075;28;20143;-78
2023/07/31 11:10:49;;;;;;;1.60;1.50;;;18.60;99.90;;;;;;4972748;28;20093;-79
2023/07/31 11:13:15;;;;;;;1.90;1.65;;;18.60;99.90;;;;;;4991442;28;20039;-78
2023/07/31 11:15:41;;;;;;;1.40;1.30;;;18.60;99.90;;;;;;4987639;28;20073;-77
2023/07/31 11:18:10;;;;;;;2.55;1.13;;;18.60;99.90;;;;;;4986417;28;20149;-78
2023/07/31 11:20:36;;;;;;;1.30;1.20;;;18.70;99.90;;;;;;4987285;28;20057;-78
2023/07/31 11:23:03;;;;;;;1.13;1.08;;;18.80;99.90;;;;;;4981547;28;20097;-79
2023/07/31 11:25:31;;;;;;;1.10;1.00;;;18.90;99.90;;;;;;4988604;28;20486;-78
2023/07/31 11:27:57;;;;;;;1.05;0.95;;;18.90;99.90;;;;;;4961335;28;20038;-79
2023/07/31 11:30:23;;;;;;;1.05;1.05;;;18.80;99.90;;;;;;4985110;28;20402;-80
2023/07/31 11:32:50;;;;;;;0.80;0.80;;;18.80;99.90;;;;;;5008321;22;20546;-74
2023/07/31 11:35:17;;;;;;;1.48;0.70;;;18.80;99.90;;;;;;5043163;28;20396;-73
2023/07/31 11:37:45;;;;;;;0.75;0.75;;;18.80;99.90;;;;;;5022189;28;20244;-75
2023/07/31 11:40:12;;;;;;;1.50;1.08;;;19.10;99.90;;;;;;5035187;28;20044;-74
2023/07/31 11:42:38;;;;;;;2.88;1.00;;;18.90;99.90;;;;;;5023826;28;20547;-76
2023/07/31 11:45:06;;;;;;;1.65;1.02;;;18.90;99.90;;;;;;5032368;28;20041;-76
2023/07/31 11:47:36;;;;;;;4.28;1.33;;;19.00;99.90;;;;;;5037528;28;20037;-77
2023/07/31 11:50:04;;;;;;;1.63;1.35;;;19.10;99.90;;;;;;5024773;28;20060;-76
2023/07/31 11:52:45;;;;;;;2.70;1.70;;;19.10;99.90;;;;;;5040203;28;20519;-76
2023/07/31 11:55:12;;;;;;;2.17;1.30;;;19.10;99.90;;;;;;5043278;28;20052;-76
2023/07/31 11:57:43;;;;;;;3.30;1.70;;;19.10;99.90;;;;;;5031447;28;20045;-76
2023/07/31 12:00:13;;;;;;;5.07;1.75;;;19.00;99.90;;;;;;5033366;28;20078;-77
2023/07/31 12:02:40;;;;;;;3.80;1.30;;;19.00;99.90;;;;;;5026053;28;20059;-76
2023/07/31 12:05:10;;;;;;;3.33;1.55;;;19.10;99.90;;;;;;5027067;28;20500;-76
2023/07/31 12:07:46;;;;;;;4.28;2.13;;;19.10;99.90;;;;;;5033117;28;20047;-77
2023/07/31 12:10:30;;;;;;;3.47;2.10;;;19.30;99.90;;;;;;5033335;28;20096;-77
2023/07/31 12:13:23;;;;;;;5.50;2.03;;;19.30;99.90;;;;;;5033341;28;20048;-76
2023/07/31 12:15:55;;;;;;;7.05;2.20;;;19.30;99.90;;;;;;5028937;28;20481;-78
2023/07/31 12:18:20;;;;;;;6.13;2.38;;;19.40;99.90;;;;;;5010753;28;20041;-77
2023/07/31 12:20:49;;;;;;;4.72;2.42;;;19.40;99.90;;;;;;5037758;28;20042;-77
2023/07/31 12:23:28;;;;;;;7.30;2.28;;;19.40;99.90;;;;;;5029743;28;20051;-78
2023/07/31 12:26:15;;;;;;;6.22;2.65;;;19.40;99.90;;;;;;5019299;28;20137;-77
2023/07/31 12:28:50;;;;;;;5.05;2.70;;;19.50;99.90;;;;;;5012281;28;20045;-77
2023/07/31 12:31:18;;;;;;;5.97;2.60;;;19.60;99.90;;;;;;5036029;28;20040;-78
2023/07/31 12:33:46;;;;;;;5.72;2.67;;;19.80;99.90;;;;;;5023191;28;20567;-78
2023/07/31 12:36:17;;;;;;;10.30;3.17;;;20.00;99.90;;;;;;5036274;28;20041;-77
2023/07/31 12:38:43;;;;;;;6.22;2.40;;;20.30;99.90;;;;;;5020934;28;20041;-78
2023/07/31 12:41:09;;;;;;;9.07;2.97;;;20.50;99.90;;;;;;5043351;28;20095;-77
2023/07/31 12:43:36;;;;;;;7.90;3.10;;;20.50;99.90;;;;;;5036570;28;20028;-78
2023/07/31 12:46:07;;;;;;;7.03;3.20;;;20.60;99.90;;;;;;5032006;28;20049;-78